EGULEGMC

Guest
Details From EGUL - Lakenheath
To EGMC - Southend
Flight Number -
Tags Generated
Created
Modified
Stats Distance 50 nm / 93 km
Max Altitude 0 ft / 0 m
Waypoints 2
Social Downloads 1
Likes 0
Share VATSIM

Download

Looking for another format? Having issues loading an existing format? Contact us
Advertisement - Login to hide

Notes

Generated

Route

EGUL EGMC

ID Type Via Altitude Latitude Longitude Leg Dist Tot Dist Heading (true) Name
O EGUL APT - 0 ft / 0 m 52.40246˚ 0.54438˚ - 0 nm - -
O EGMC APT - 0 ft / 0 m 51.56725˚ 0.68627˚ 50 nm 50 nm 174° / 174° -

Altitude Profile

Advertisement - Login to hide

EGUL

Details ICAO EGUL
Name RAF Lakenheath
Region United Kingdom
Timezone Europe/London (UTC+0.0)
Stats Elevation 32 ft / 10 m (AMSL)
Location 52.409407° 0.561018°
Runways 1
Magnetic Variation 0.303° W

METAR

EGUL 150819Z AUTO 31012KT 9999 -DZ SCT021 OVC027 02/02 A2930 RMK AO2 RAE04DZB15 CIG 022V027 CIG 022 RWY24 SLP926 $

Decode

TAF

TAF AMD EGUL 150726Z 1507/1610 28009KT 8000 -SHRA BKN020 610209 QNH2917INS TEMPO 1507/1508 BKN010 BECMG 1508/1509 32015G25KT 9999 NSW BKN010 610206 QNH2922INS TEMPO 1509/1513 BKN020 BECMG 1517/1518 32012G20KT 9999 BKN020 610205 QNH2950INS TX07/1514Z TNM01/1604Z

Decode

Departure Runways

ID Width Length Bearing (true) Bearing (mag) Surface Threshold Offset Overrun Length
06 151 ft / 46 m 8,973 ft / 2,735 m 55.59° 55.89° Asphalt 0 ft / 0 m 965 ft / 294 m
24 151 ft / 46 m 8,973 ft / 2,735 m 235.61° 235.91° Asphalt 0 ft / 0 m 988 ft / 301 m

EGMC

Details ICAO EGMC (SEN)
Name Southend
Region United Kingdom
Timezone Europe/London (UTC+0.0)
Stats Elevation 49 ft / 15 m (AMSL)
Location 51.571443° 0.695583°
Runways 1
Magnetic Variation 0.171° W

METAR

EGMC 150820Z 30007KT 9999 SCT018 02/M00 Q0992 RESHSN

Decode

TAF

Not found

Destination Runways

ID Width Length Bearing (true) Bearing (mag) Surface Threshold Offset Overrun Length
06 121 ft / 37 m 5,230 ft / 1,594 m 54.10° 54.27° Asphalt 558 ft / 170 m 0 ft / 0 m
24 121 ft / 37 m 5,230 ft / 1,594 m 234.11° 234.28° Asphalt 466 ft / 142 m 0 ft / 0 m

Approach Navaids

Runway Type Ident Frequency Range Bearing (true) Bearing (mag) Slope Elevation
24 Localiser IND 111.35 MHz 18 nm / 33 km 234.08° 234.25° - 49 ft / 15 m (AMSL)
24 Glidescope IND 111.35 MHz 10 nm / 19 km 234.10° 234.27° 3.50° 49 ft / 15 m (AMSL)
24 DME IND 111.35 MHz 18 nm / 33 km - - - 49 ft / 15 m (AMSL)